createdAt,value
2023-04-06T00:00:43.844Z,8.95
2023-04-06T00:06:05.868Z,8.25
2023-04-06T00:11:28.076Z,7.25
2023-04-06T00:16:50.019Z,9.10
2023-04-06T00:22:11.969Z,7.38
2023-04-06T00:27:34.031Z,6.53
2023-04-06T00:32:55.875Z,6.43
2023-04-06T00:38:18.390Z,6.97
2023-04-06T00:43:40.262Z,6.55
2023-04-06T00:49:02.127Z,6.55
2023-04-06T00:54:23.975Z,6.30
2023-04-06T00:59:46.220Z,6.60
2023-04-06T01:05:08.424Z,5.97
2023-04-06T01:10:30.521Z,5.80
2023-04-06T01:15:52.601Z,6.53
2023-04-06T01:21:14.511Z,5.78
2023-04-06T01:26:38.098Z,6.20
2023-04-06T01:31:59.978Z,6.35
2023-04-06T01:37:23.026Z,6.55
2023-04-06T01:42:44.997Z,6.80
2023-04-06T01:48:08.537Z,6.75
2023-04-06T01:53:30.401Z,7.38
2023-04-06T01:58:52.284Z,6.00
2023-04-06T02:04:14.170Z,6.53
2023-04-06T02:09:36.654Z,5.22
2023-04-06T02:14:58.514Z,5.53
2023-04-06T02:20:20.571Z,5.53
2023-04-06T02:25:42.483Z,5.13
2023-04-06T02:31:04.410Z,5.15
2023-04-06T02:36:26.257Z,4.40
2023-04-06T02:41:48.106Z,4.57
2023-04-06T02:47:09.947Z,4.90
2023-04-06T02:52:31.957Z,5.28
2023-04-06T02:57:53.753Z,5.85
2023-04-06T03:03:15.705Z,5.70
2023-04-06T03:08:37.733Z,5.72
2023-04-06T03:13:59.579Z,5.75
2023-04-06T03:19:21.388Z,5.80
2023-04-06T03:24:43.246Z,5.50
2023-04-06T03:30:05.814Z,5.95
2023-04-06T03:35:27.748Z,6.07
2023-04-06T03:40:49.613Z,5.93
2023-04-06T03:46:11.571Z,6.28
2023-04-06T03:51:33.490Z,6.15
2023-04-06T03:56:55.317Z,7.15
2023-04-06T04:02:17.170Z,7.47
2023-04-06T04:07:39.185Z,7.53
2023-04-06T04:13:01.040Z,7.20
2023-04-06T04:18:22.905Z,7.63
2023-04-06T04:23:44.773Z,7.18
2023-04-06T04:29:07.330Z,6.95
2023-04-06T04:34:29.457Z,5.93
2023-04-06T04:39:51.277Z,6.80
2023-04-06T04:45:13.086Z,6.78
2023-04-06T04:50:34.985Z,6.50
2023-04-06T04:55:56.990Z,6.72
2023-04-06T05:01:18.923Z,7.10
2023-04-06T05:06:40.932Z,6.45
2023-04-06T05:12:03.378Z,5.90
2023-04-06T05:17:25.294Z,6.45
2023-04-06T05:22:47.242Z,6.75
2023-04-06T05:28:09.134Z,7.38
2023-04-06T05:33:31.058Z,6.13
2023-04-06T05:38:52.906Z,5.28
2023-04-06T05:44:14.777Z,5.25
2023-04-06T05:49:36.776Z,5.40
2023-04-06T05:54:58.617Z,4.72
2023-04-06T06:00:20.798Z,4.80
2023-04-06T06:05:42.657Z,4.38
2023-04-06T06:11:04.720Z,4.50
2023-04-06T06:16:26.594Z,8.35
2023-04-06T06:21:48.500Z,7.13
2023-04-06T06:27:10.332Z,7.35
2023-04-06T06:32:33.137Z,4.50
2023-04-06T06:37:55.009Z,4.07
2023-04-06T06:43:16.905Z,3.50
2023-04-06T06:48:38.742Z,3.70
2023-04-06T06:54:00.552Z,3.25
2023-04-06T06:59:22.541Z,2.70
2023-04-06T07:04:44.406Z,3.28
2023-04-06T07:10:06.967Z,3.50
2023-04-06T07:15:28.834Z,6.82
2023-04-06T07:20:50.704Z,6.97
2023-04-06T07:26:12.576Z,28.63
2023-04-06T07:31:34.470Z,3.75
2023-04-06T07:36:56.337Z,3.38
2023-04-06T07:42:18.235Z,2.45
2023-04-06T07:47:40.137Z,2.70
2023-04-06T07:53:02.035Z,2.60
2023-04-06T07:58:23.895Z,2.75
2023-04-06T08:03:45.869Z,3.28
2023-04-06T08:09:07.861Z,3.00
2023-04-06T08:14:29.706Z,2.83
2023-04-06T08:19:51.509Z,3.40
2023-04-06T08:25:13.895Z,3.25
2023-04-06T08:30:36.218Z,2.88
2023-04-06T08:35:58.426Z,3.08
2023-04-06T08:41:20.740Z,3.38
2023-04-06T08:46:42.716Z,2.80
2023-04-06T08:52:07.521Z,2.75
2023-04-06T08:57:30.070Z,3.15
2023-04-06T09:02:54.818Z,3.22
2023-04-06T09:08:16.774Z,2.92
2023-04-06T09:13:56.276Z,2.70
2023-04-06T09:19:18.112Z,3.35
2023-04-06T09:24:52.086Z,3.35
2023-04-06T09:30:14.615Z,2.80
2023-04-06T09:35:36.561Z,2.63
2023-04-06T09:41:01.102Z,2.53
2023-04-06T09:46:24.076Z,3.03
2023-04-06T09:51:56.269Z,3.03
2023-04-06T09:57:18.053Z,2.90
2023-04-06T10:03:13.394Z,3.63
2023-04-06T10:08:37.417Z,4.00
2023-04-06T10:13:59.398Z,3.47
2023-04-06T10:19:30.050Z,3.20
2023-04-06T10:24:51.933Z,3.72
2023-04-06T10:30:16.745Z,3.63
2023-04-06T10:35:39.017Z,4.22
2023-04-06T10:41:09.147Z,3.70
2023-04-06T10:46:32.546Z,4.55
2023-04-06T10:51:57.942Z,4.28
2023-04-06T10:57:29.482Z,3.85
2023-04-06T11:02:51.458Z,3.60
2023-04-06T11:08:28.328Z,3.60
2023-04-06T11:13:56.033Z,4.45
2023-04-06T11:19:18.699Z,3.80
2023-04-06T11:24:40.595Z,3.17
2023-04-06T11:30:03.177Z,3.40
2023-04-06T11:35:25.109Z,4.18
2023-04-06T11:40:47.106Z,3.33
2023-04-06T11:51:28.393Z,3.13
2023-04-06T11:56:50.220Z,2.78
2023-04-06T12:02:12.274Z,3.65
2023-04-06T12:07:34.269Z,3.63
2023-04-06T12:12:56.120Z,4.10
2023-04-06T12:18:17.933Z,3.50
2023-04-06T12:23:39.758Z,3.35
2023-04-06T12:29:01.621Z,3.28
2023-04-06T12:34:23.448Z,3.58
2023-04-06T12:39:45.355Z,3.50
2023-04-06T12:45:07.941Z,3.97
2023-04-06T12:50:29.807Z,4.00
2023-04-06T12:55:54.369Z,4.90
2023-04-06T13:01:16.408Z,3.80
2023-04-06T13:06:38.313Z,3.42
2023-04-06T13:12:00.233Z,3.72
2023-04-06T13:17:22.199Z,3.28
2023-04-06T13:22:44.231Z,3.90
2023-04-06T13:28:06.068Z,3.05
2023-04-06T13:33:29.002Z,3.75
2023-04-06T13:38:50.873Z,4.00
2023-04-06T13:44:12.750Z,3.65
2023-04-06T13:49:34.643Z,3.50
2023-04-06T13:54:56.660Z,4.60
2023-04-06T14:00:19.148Z,3.67
2023-04-06T14:05:41.016Z,3.65
2023-04-06T14:11:02.813Z,3.90
2023-04-06T14:16:25.030Z,4.22
2023-04-06T14:21:47.277Z,4.05
2023-04-06T14:27:09.086Z,4.13
2023-04-06T14:32:30.950Z,4.25
2023-04-06T14:37:52.774Z,4.38
2023-04-06T14:43:14.898Z,4.15
2023-04-06T14:48:36.995Z,3.45
2023-04-06T14:53:58.811Z,4.43
2023-04-06T14:59:20.608Z,3.28
2023-04-06T15:04:42.427Z,4.65
2023-04-06T15:10:05.695Z,4.60
2023-04-06T15:15:27.533Z,3.80
2023-04-06T15:20:49.330Z,4.22
2023-04-06T15:26:11.169Z,3.38
2023-04-06T15:37:14.753Z,3.70
2023-04-06T15:42:36.598Z,4.93
2023-04-06T15:47:58.465Z,4.68
2023-04-06T15:53:20.333Z,5.25
2023-04-06T15:58:42.204Z,4.97
2023-04-06T16:04:07.300Z,4.55
2023-04-06T16:09:29.204Z,4.68
2023-04-06T16:14:51.277Z,4.78
2023-04-06T16:20:13.119Z,4.80
2023-04-06T16:25:34.965Z,5.57
2023-04-06T16:30:56.771Z,5.25
2023-04-06T16:36:36.993Z,5.60
2023-04-06T16:41:59.441Z,5.25
2023-04-06T16:47:22.070Z,5.60
2023-04-06T16:52:44.400Z,6.55
2023-04-06T16:58:06.804Z,6.13
2023-04-06T17:03:30.719Z,6.18
2023-04-06T17:08:53.151Z,5.75
2023-04-06T17:14:15.238Z,5.32
2023-04-06T17:19:37.094Z,6.57
2023-04-06T17:24:58.997Z,6.43
2023-04-06T17:30:20.976Z,6.20
2023-04-06T17:35:42.836Z,5.63
2023-04-06T17:41:04.768Z,5.63
2023-04-06T17:46:26.914Z,5.63
2023-04-06T17:51:49.045Z,6.28
2023-04-06T17:57:10.923Z,5.45
2023-04-06T18:02:32.885Z,6.18
2023-04-06T18:07:54.916Z,6.25
2023-04-06T18:13:16.864Z,6.15
2023-04-06T18:18:38.755Z,7.30
2023-04-06T18:24:04.788Z,6.70
2023-04-06T18:29:27.899Z,6.50
2023-04-06T18:34:49.809Z,8.15
2023-04-06T18:40:34.225Z,7.35
2023-04-06T18:45:56.103Z,8.32
2023-04-06T18:51:18.322Z,8.05
2023-04-06T18:56:40.245Z,9.55
2023-04-06T19:02:02.263Z,8.70
2023-04-06T19:07:24.158Z,8.02
2023-04-06T19:12:46.005Z,7.80
2023-04-06T19:18:07.848Z,7.93
2023-04-06T19:23:29.762Z,7.38
2023-04-06T19:28:51.597Z,7.57
2023-04-06T19:34:13.436Z,7.50
2023-04-06T19:39:35.384Z,7.60
2023-04-06T19:44:58.519Z,7.43
2023-04-06T19:50:20.619Z,7.45
2023-04-06T19:55:42.481Z,7.72
2023-04-06T20:01:04.655Z,8.32
2023-04-06T20:06:26.554Z,7.25
2023-04-06T20:11:48.712Z,6.63
2023-04-06T20:17:10.509Z,6.97
2023-04-06T20:22:32.515Z,7.63
2023-04-06T20:27:54.404Z,8.13
2023-04-06T20:33:16.298Z,8.48
2023-04-06T20:38:38.265Z,7.75
2023-04-06T20:44:00.182Z,10.50
2023-04-06T20:49:22.101Z,10.35
2023-04-06T20:54:44.030Z,9.82
2023-04-06T21:00:06.566Z,12.88
2023-04-06T21:05:28.587Z,12.68
2023-04-06T21:10:50.482Z,12.38
2023-04-06T21:16:12.394Z,14.82
2023-04-06T21:21:34.292Z,12.65
2023-04-06T21:26:56.184Z,14.43
2023-04-06T21:32:18.322Z,13.68
2023-04-06T21:37:40.224Z,12.55
2023-04-06T21:43:02.306Z,13.27
2023-04-06T21:48:24.231Z,13.50
2023-04-06T21:53:47.269Z,15.20
2023-04-06T21:59:09.290Z,15.55
2023-04-06T22:04:32.020Z,15.25
2023-04-06T22:09:54.110Z,13.60
2023-04-06T22:15:16.576Z,13.48
2023-04-06T22:20:38.597Z,13.90
2023-04-06T22:26:00.581Z,14.65
2023-04-06T22:31:22.550Z,14.45
2023-04-06T22:36:44.396Z,14.13
2023-04-06T22:42:06.283Z,13.60
2023-04-06T22:47:28.245Z,13.23
2023-04-06T22:52:50.375Z,13.98
2023-04-06T22:58:12.698Z,13.68
2023-04-06T23:03:34.677Z,13.05
2023-04-06T23:08:56.620Z,14.02
2023-04-06T23:14:18.734Z,13.55
2023-04-06T23:19:40.861Z,13.90
2023-04-06T23:25:02.758Z,14.75
2023-04-06T23:30:24.649Z,14.70
2023-04-06T23:35:46.639Z,15.48
2023-04-06T23:41:08.576Z,15.38
2023-04-06T23:46:30.478Z,14.55
2023-04-06T23:51:52.372Z,15.50
2023-04-06T23:57:14.244Z,15.30
